sensor_id;sensor_type;location;lat;lon;timestamp;P1;durP1;ratioP1;P2;durP2;ratioP2
6878;SDS011;3478;51.462;7.338;2023-04-15T00:00:04;7.57;;;6.80;;
6878;SDS011;3478;51.462;7.338;2023-04-15T00:05:09;8.03;;;5.23;;
6878;SDS011;3478;51.462;7.338;2023-04-15T00:10:10;6.67;;;5.97;;
6878;SDS011;3478;51.462;7.338;2023-04-15T00:15:13;6.17;;;5.67;;
6878;SDS011;3478;51.462;7.338;2023-04-15T00:20:16;10.50;;;6.70;;
6878;SDS011;3478;51.462;7.338;2023-04-15T00:25:19;8.13;;;6.93;;
6878;SDS011;3478;51.462;7.338;2023-04-15T00:30:21;9.90;;;7.80;;
6878;SDS011;3478;51.462;7.338;2023-04-15T00:35:24;12.50;;;8.67;;
6878;SDS011;3478;51.462;7.338;2023-04-15T00:40:32;9.47;;;8.47;;
6878;SDS011;3478;51.462;7.338;2023-04-15T00:45:34;11.87;;;8.10;;
6878;SDS011;3478;51.462;7.338;2023-04-15T00:50:37;10.63;;;8.80;;
6878;SDS011;3478;51.462;7.338;2023-04-15T00:55:39;9.30;;;7.23;;
6878;SDS011;3478;51.462;7.338;2023-04-15T01:00:41;10.83;;;8.80;;
6878;SDS011;3478;51.462;7.338;2023-04-15T01:05:44;9.40;;;8.40;;
6878;SDS011;3478;51.462;7.338;2023-04-15T01:10:46;15.13;;;8.10;;
6878;SDS011;3478;51.462;7.338;2023-04-15T01:15:48;11.73;;;9.07;;
6878;SDS011;3478;51.462;7.338;2023-04-15T01:20:53;9.27;;;8.00;;
6878;SDS011;3478;51.462;7.338;2023-04-15T01:25:56;8.80;;;8.00;;
6878;SDS011;3478;51.462;7.338;2023-04-15T01:31:05;11.53;;;8.87;;
6878;SDS011;3478;51.462;7.338;2023-04-15T01:36:08;10.07;;;9.07;;
6878;SDS011;3478;51.462;7.338;2023-04-15T01:41:12;11.07;;;9.90;;
6878;SDS011;3478;51.462;7.338;2023-04-15T01:46:14;11.10;;;9.27;;
6878;SDS011;3478;51.462;7.338;2023-04-15T01:51:16;10.90;;;8.60;;
6878;SDS011;3478;51.462;7.338;2023-04-15T01:56:19;11.80;;;9.53;;
6878;SDS011;3478;51.462;7.338;2023-04-15T02:01:21;10.00;;;9.00;;
6878;SDS011;3478;51.462;7.338;2023-04-15T02:06:23;12.47;;;8.70;;
6878;SDS011;3478;51.462;7.338;2023-04-15T02:11:26;11.63;;;8.70;;
6878;SDS011;3478;51.462;7.338;2023-04-15T02:16:28;10.27;;;9.27;;
6878;SDS011;3478;51.462;7.338;2023-04-15T02:21:30;9.67;;;8.77;;
6878;SDS011;3478;51.462;7.338;2023-04-15T02:26:33;13.27;;;9.40;;
6878;SDS011;3478;51.462;7.338;2023-04-15T02:31:35;10.60;;;9.47;;
6878;SDS011;3478;51.462;7.338;2023-04-15T02:36:39;13.70;;;9.37;;
6878;SDS011;3478;51.462;7.338;2023-04-15T02:41:42;12.33;;;8.90;;
6878;SDS011;3478;51.462;7.338;2023-04-15T02:46:46;10.60;;;8.27;;
6878;SDS011;3478;51.462;7.338;2023-04-15T02:51:51;10.60;;;9.10;;
6878;SDS011;3478;51.462;7.338;2023-04-15T02:56:54;13.10;;;9.60;;
6878;SDS011;3478;51.462;7.338;2023-04-15T03:01:56;15.03;;;9.20;;
6878;SDS011;3478;51.462;7.338;2023-04-15T03:07:00;11.07;;;9.20;;
6878;SDS011;3478;51.462;7.338;2023-04-15T03:12:03;14.20;;;11.63;;
6878;SDS011;3478;51.462;7.338;2023-04-15T03:17:05;12.10;;;10.83;;
6878;SDS011;3478;51.462;7.338;2023-04-15T03:22:07;13.20;;;11.13;;
6878;SDS011;3478;51.462;7.338;2023-04-15T03:27:10;10.77;;;9.33;;
6878;SDS011;3478;51.462;7.338;2023-04-15T03:32:12;13.87;;;11.20;;
6878;SDS011;3478;51.462;7.338;2023-04-15T03:37:14;12.10;;;10.23;;
6878;SDS011;3478;51.462;7.338;2023-04-15T03:42:17;15.83;;;11.90;;
6878;SDS011;3478;51.462;7.338;2023-04-15T03:47:19;18.10;;;11.83;;
6878;SDS011;3478;51.462;7.338;2023-04-15T03:52:21;14.60;;;11.60;;
6878;SDS011;3478;51.462;7.338;2023-04-15T03:57:24;11.90;;;10.70;;
6878;SDS011;3478;51.462;7.338;2023-04-15T04:02:26;13.57;;;11.30;;
6878;SDS011;3478;51.462;7.338;2023-04-15T04:07:28;20.40;;;11.40;;
6878;SDS011;3478;51.462;7.338;2023-04-15T04:12:31;16.60;;;10.47;;
6878;SDS011;3478;51.462;7.338;2023-04-15T04:17:33;10.97;;;9.83;;
6878;SDS011;3478;51.462;7.338;2023-04-15T04:22:36;11.07;;;9.93;;
6878;SDS011;3478;51.462;7.338;2023-04-15T04:27:40;12.37;;;11.27;;
6878;SDS011;3478;51.462;7.338;2023-04-15T04:32:41;19.47;;;11.13;;
6878;SDS011;3478;51.462;7.338;2023-04-15T04:37:43;12.03;;;10.50;;
6878;SDS011;3478;51.462;7.338;2023-04-15T04:42:46;16.07;;;10.50;;
6878;SDS011;3478;51.462;7.338;2023-04-15T04:47:48;13.23;;;10.63;;
6878;SDS011;3478;51.462;7.338;2023-04-15T04:52:50;10.93;;;9.80;;
6878;SDS011;3478;51.462;7.338;2023-04-15T04:57:53;14.50;;;10.00;;
6878;SDS011;3478;51.462;7.338;2023-04-15T05:02:55;14.40;;;10.27;;
6878;SDS011;3478;51.462;7.338;2023-04-15T05:07:57;12.10;;;10.30;;
6878;SDS011;3478;51.462;7.338;2023-04-15T05:13:00;11.77;;;9.30;;
6878;SDS011;3478;51.462;7.338;2023-04-15T05:18:02;12.90;;;10.10;;
6878;SDS011;3478;51.462;7.338;2023-04-15T05:23:04;12.97;;;10.43;;
6878;SDS011;3478;51.462;7.338;2023-04-15T05:28:08;10.50;;;9.47;;
6878;SDS011;3478;51.462;7.338;2023-04-15T05:33:09;17.80;;;10.90;;
6878;SDS011;3478;51.462;7.338;2023-04-15T05:38:11;13.00;;;10.20;;
6878;SDS011;3478;51.462;7.338;2023-04-15T05:43:15;14.13;;;9.80;;
6878;SDS011;3478;51.462;7.338;2023-04-15T05:48:16;12.70;;;11.20;;
6878;SDS011;3478;51.462;7.338;2023-04-15T05:53:18;11.67;;;10.23;;
6878;SDS011;3478;51.462;7.338;2023-04-15T05:58:22;12.67;;;11.20;;
6878;SDS011;3478;51.462;7.338;2023-04-15T06:03:23;13.50;;;11.47;;
6878;SDS011;3478;51.462;7.338;2023-04-15T06:08:25;14.00;;;11.50;;
6878;SDS011;3478;51.462;7.338;2023-04-15T06:13:29;13.13;;;11.83;;
6878;SDS011;3478;51.462;7.338;2023-04-15T06:18:31;14.20;;;12.33;;
6878;SDS011;3478;51.462;7.338;2023-04-15T06:23:33;21.03;;;15.37;;
6878;SDS011;3478;51.462;7.338;2023-04-15T06:28:36;19.30;;;15.93;;
6878;SDS011;3478;51.462;7.338;2023-04-15T06:33:38;18.27;;;14.03;;
6878;SDS011;3478;51.462;7.338;2023-04-15T06:38:40;16.00;;;12.80;;
6878;SDS011;3478;51.462;7.338;2023-04-15T06:43:43;18.50;;;13.50;;
6878;SDS011;3478;51.462;7.338;2023-04-15T06:48:45;17.53;;;15.20;;
6878;SDS011;3478;51.462;7.338;2023-04-15T06:53:47;16.03;;;14.27;;
6878;SDS011;3478;51.462;7.338;2023-04-15T06:58:50;16.43;;;14.13;;
6878;SDS011;3478;51.462;7.338;2023-04-15T07:03:52;22.40;;;15.07;;
6878;SDS011;3478;51.462;7.338;2023-04-15T07:08:54;18.70;;;15.77;;
6878;SDS011;3478;51.462;7.338;2023-04-15T07:13:57;15.57;;;13.50;;
6878;SDS011;3478;51.462;7.338;2023-04-15T07:18:59;16.50;;;13.30;;
6878;SDS011;3478;51.462;7.338;2023-04-15T07:24:01;16.97;;;12.00;;
6878;SDS011;3478;51.462;7.338;2023-04-15T07:29:04;14.83;;;13.20;;
6878;SDS011;3478;51.462;7.338;2023-04-15T07:34:06;13.67;;;12.27;;
6878;SDS011;3478;51.462;7.338;2023-04-15T07:39:08;18.40;;;13.40;;
6878;SDS011;3478;51.462;7.338;2023-04-15T07:44:11;15.70;;;12.73;;
6878;SDS011;3478;51.462;7.338;2023-04-15T07:49:13;15.13;;;13.53;;
6878;SDS011;3478;51.462;7.338;2023-04-15T07:54:15;13.90;;;11.47;;
6878;SDS011;3478;51.462;7.338;2023-04-15T07:59:18;13.17;;;11.13;;
6878;SDS011;3478;51.462;7.338;2023-04-15T08:04:20;14.97;;;11.40;;
6878;SDS011;3478;51.462;7.338;2023-04-15T08:09:22;16.13;;;11.47;;
6878;SDS011;3478;51.462;7.338;2023-04-15T08:14:25;16.20;;;12.73;;
6878;SDS011;3478;51.462;7.338;2023-04-15T08:19:27;10.13;;;8.80;;
6878;SDS011;3478;51.462;7.338;2023-04-15T08:24:30;9.90;;;8.03;;
6878;SDS011;3478;51.462;7.338;2023-04-15T08:29:33;11.03;;;7.93;;
6878;SDS011;3478;51.462;7.338;2023-04-15T08:34:35;10.17;;;8.00;;
6878;SDS011;3478;51.462;7.338;2023-04-15T08:39:37;8.67;;;7.30;;
6878;SDS011;3478;51.462;7.338;2023-04-15T08:44:40;9.40;;;6.80;;
6878;SDS011;3478;51.462;7.338;2023-04-15T08:49:43;9.07;;;7.03;;
6878;SDS011;3478;51.462;7.338;2023-04-15T08:54:46;8.73;;;7.23;;
6878;SDS011;3478;51.462;7.338;2023-04-15T08:59:49;8.40;;;7.50;;
6878;SDS011;3478;51.462;7.338;2023-04-15T09:04:52;7.60;;;6.87;;
6878;SDS011;3478;51.462;7.338;2023-04-15T09:09:54;8.87;;;5.87;;
6878;SDS011;3478;51.462;7.338;2023-04-15T09:14:57;5.83;;;5.43;;
6878;SDS011;3478;51.462;7.338;2023-04-15T09:20:06;6.73;;;6.13;;
6878;SDS011;3478;51.462;7.338;2023-04-15T09:25:25;7.93;;;5.93;;
6878;SDS011;3478;51.462;7.338;2023-04-15T09:30:29;6.97;;;6.40;;
6878;SDS011;3478;51.462;7.338;2023-04-15T09:35:31;6.30;;;5.70;;
6878;SDS011;3478;51.462;7.338;2023-04-15T09:40:34;7.60;;;6.90;;
6878;SDS011;3478;51.462;7.338;2023-04-15T09:45:38;8.67;;;7.20;;
6878;SDS011;3478;51.462;7.338;2023-04-15T09:50:47;7.90;;;7.10;;
6878;SDS011;3478;51.462;7.338;2023-04-15T09:55:50;7.77;;;7.07;;
6878;SDS011;3478;51.462;7.338;2023-04-15T10:00:55;7.43;;;6.73;;
6878;SDS011;3478;51.462;7.338;2023-04-15T10:05:58;7.80;;;7.10;;
6878;SDS011;3478;51.462;7.338;2023-04-15T10:11:01;7.17;;;6.47;;
6878;SDS011;3478;51.462;7.338;2023-04-15T10:16:06;9.00;;;8.20;;
6878;SDS011;3478;51.462;7.338;2023-04-15T10:21:11;6.53;;;5.93;;
6878;SDS011;3478;51.462;7.338;2023-04-15T10:26:17;6.40;;;5.80;;
6878;SDS011;3478;51.462;7.338;2023-04-15T10:31:20;7.53;;;6.83;;
6878;SDS011;3478;51.462;7.338;2023-04-15T10:36:24;7.87;;;7.07;;
6878;SDS011;3478;51.462;7.338;2023-04-15T10:41:26;7.10;;;6.40;;
6878;SDS011;3478;51.462;7.338;2023-04-15T10:46:35;11.37;;;7.10;;
6878;SDS011;3478;51.462;7.338;2023-04-15T10:51:38;7.57;;;6.10;;
6878;SDS011;3478;51.462;7.338;2023-04-15T10:56:41;8.40;;;7.50;;
6878;SDS011;3478;51.462;7.338;2023-04-15T11:01:51;7.43;;;6.73;;
6878;SDS011;3478;51.462;7.338;2023-04-15T11:07:03;7.57;;;6.83;;
6878;SDS011;3478;51.462;7.338;2023-04-15T11:12:06;10.50;;;6.33;;
6878;SDS011;3478;51.462;7.338;2023-04-15T11:17:12;7.23;;;6.53;;
6878;SDS011;3478;51.462;7.338;2023-04-15T11:22:14;9.50;;;7.50;;
6878;SDS011;3478;51.462;7.338;2023-04-15T11:27:19;6.10;;;5.27;;
6878;SDS011;3478;51.462;7.338;2023-04-15T11:32:23;6.93;;;6.33;;
6878;SDS011;3478;51.462;7.338;2023-04-15T11:37:28;5.83;;;5.37;;
6878;SDS011;3478;51.462;7.338;2023-04-15T11:42:32;5.93;;;5.30;;
6878;SDS011;3478;51.462;7.338;2023-04-15T11:47:35;6.57;;;5.90;;
6878;SDS011;3478;51.462;7.338;2023-04-15T11:52:37;7.17;;;6.40;;
6878;SDS011;3478;51.462;7.338;2023-04-15T11:57:39;10.53;;;5.50;;
6878;SDS011;3478;51.462;7.338;2023-04-15T12:02:43;7.13;;;6.40;;
6878;SDS011;3478;51.462;7.338;2023-04-15T12:07:57;6.07;;;5.63;;
6878;SDS011;3478;51.462;7.338;2023-04-15T12:12:59;5.67;;;5.27;;
6878;SDS011;3478;51.462;7.338;2023-04-15T12:18:02;5.43;;;5.03;;
6878;SDS011;3478;51.462;7.338;2023-04-15T12:23:05;5.67;;;5.17;;
6878;SDS011;3478;51.462;7.338;2023-04-15T12:28:09;10.00;;;5.23;;
6878;SDS011;3478;51.462;7.338;2023-04-15T12:33:13;5.87;;;5.37;;
6878;SDS011;3478;51.462;7.338;2023-04-15T12:38:15;6.73;;;6.00;;
6878;SDS011;3478;51.462;7.338;2023-04-15T12:49:15;4.33;;;4.00;;
6878;SDS011;3478;51.462;7.338;2023-04-15T12:54:19;5.20;;;4.80;;
6878;SDS011;3478;51.462;7.338;2023-04-15T12:59:22;4.47;;;4.10;;
6878;SDS011;3478;51.462;7.338;2023-04-15T13:04:25;4.83;;;4.43;;
6878;SDS011;3478;51.462;7.338;2023-04-15T13:09:29;5.10;;;4.67;;
6878;SDS011;3478;51.462;7.338;2023-04-15T13:14:31;4.67;;;4.27;;
6878;SDS011;3478;51.462;7.338;2023-04-15T13:19:34;6.97;;;4.43;;
6878;SDS011;3478;51.462;7.338;2023-04-15T13:24:36;5.13;;;3.93;;
6878;SDS011;3478;51.462;7.338;2023-04-15T13:29:39;4.50;;;4.20;;
6878;SDS011;3478;51.462;7.338;2023-04-15T13:34:43;5.63;;;5.07;;
6878;SDS011;3478;51.462;7.338;2023-04-15T13:39:45;3.90;;;3.60;;
6878;SDS011;3478;51.462;7.338;2023-04-15T13:44:46;4.67;;;4.27;;
6878;SDS011;3478;51.462;7.338;2023-04-15T13:49:51;5.10;;;4.30;;
6878;SDS011;3478;51.462;7.338;2023-04-15T13:54:55;6.13;;;3.30;;
6878;SDS011;3478;51.462;7.338;2023-04-15T13:59:57;2.97;;;2.77;;
6878;SDS011;3478;51.462;7.338;2023-04-15T14:05:00;3.23;;;3.00;;
6878;SDS011;3478;51.462;7.338;2023-04-15T14:10:02;7.83;;;3.70;;
6878;SDS011;3478;51.462;7.338;2023-04-15T14:15:04;4.70;;;3.43;;
6878;SDS011;3478;51.462;7.338;2023-04-15T14:20:09;3.77;;;3.47;;
6878;SDS011;3478;51.462;7.338;2023-04-15T14:25:11;3.97;;;3.67;;
6878;SDS011;3478;51.462;7.338;2023-04-15T14:30:13;3.00;;;2.83;;
6878;SDS011;3478;51.462;7.338;2023-04-15T14:35:16;6.17;;;4.30;;
6878;SDS011;3478;51.462;7.338;2023-04-15T14:40:18;3.00;;;2.80;;
6878;SDS011;3478;51.462;7.338;2023-04-15T14:45:20;2.83;;;2.63;;
6878;SDS011;3478;51.462;7.338;2023-04-15T14:50:23;3.43;;;2.90;;
6878;SDS011;3478;51.462;7.338;2023-04-15T14:55:25;3.17;;;2.97;;
6878;SDS011;3478;51.462;7.338;2023-04-15T15:00:27;2.90;;;2.60;;
6878;SDS011;3478;51.462;7.338;2023-04-15T15:05:30;8.10;;;2.80;;
6878;SDS011;3478;51.462;7.338;2023-04-15T15:10:32;3.07;;;2.87;;
6878;SDS011;3478;51.462;7.338;2023-04-15T15:15:35;5.23;;;4.70;;
6878;SDS011;3478;51.462;7.338;2023-04-15T15:20:39;5.43;;;4.83;;
6878;SDS011;3478;51.462;7.338;2023-04-15T15:25:41;10.10;;;5.33;;
6878;SDS011;3478;51.462;7.338;2023-04-15T15:30:43;6.90;;;5.20;;
6878;SDS011;3478;51.462;7.338;2023-04-15T15:35:46;6.27;;;5.73;;
6878;SDS011;3478;51.462;7.338;2023-04-15T15:40:48;4.90;;;4.60;;
6878;SDS011;3478;51.462;7.338;2023-04-15T15:45:51;6.40;;;5.20;;
6878;SDS011;3478;51.462;7.338;2023-04-15T15:50:55;5.40;;;5.00;;
6878;SDS011;3478;51.462;7.338;2023-04-15T15:55:57;6.37;;;5.23;;
6878;SDS011;3478;51.462;7.338;2023-04-15T16:00:59;4.60;;;4.17;;
6878;SDS011;3478;51.462;7.338;2023-04-15T16:06:02;6.73;;;5.70;;
6878;SDS011;3478;51.462;7.338;2023-04-15T16:11:04;5.90;;;5.40;;
6878;SDS011;3478;51.462;7.338;2023-04-15T16:16:06;7.43;;;6.73;;
6878;SDS011;3478;51.462;7.338;2023-04-15T16:21:10;5.87;;;5.47;;
6878;SDS011;3478;51.462;7.338;2023-04-15T16:26:11;6.23;;;5.73;;
6878;SDS011;3478;51.462;7.338;2023-04-15T16:31:13;7.77;;;7.07;;
6878;SDS011;3478;51.462;7.338;2023-04-15T16:36:17;6.60;;;6.20;;
6878;SDS011;3478;51.462;7.338;2023-04-15T16:41:18;8.97;;;6.30;;
6878;SDS011;3478;51.462;7.338;2023-04-15T16:46:20;7.70;;;6.23;;
6878;SDS011;3478;51.462;7.338;2023-04-15T16:51:24;6.80;;;6.40;;
6878;SDS011;3478;51.462;7.338;2023-04-15T16:56:26;4.57;;;4.23;;
6878;SDS011;3478;51.462;7.338;2023-04-15T17:01:28;6.23;;;5.47;;
6878;SDS011;3478;51.462;7.338;2023-04-15T17:06:31;6.70;;;6.00;;
6878;SDS011;3478;51.462;7.338;2023-04-15T17:11:33;6.53;;;5.93;;
6878;SDS011;3478;51.462;7.338;2023-04-15T17:16:37;7.03;;;6.33;;
6878;SDS011;3478;51.462;7.338;2023-04-15T17:21:40;7.40;;;6.67;;
6878;SDS011;3478;51.462;7.338;2023-04-15T17:26:42;8.10;;;7.40;;
6878;SDS011;3478;51.462;7.338;2023-04-15T17:31:44;7.07;;;6.47;;
6878;SDS011;3478;51.462;7.338;2023-04-15T17:36:47;6.57;;;6.17;;
6878;SDS011;3478;51.462;7.338;2023-04-15T17:41:50;6.47;;;6.00;;
6878;SDS011;3478;51.462;7.338;2023-04-15T17:46:52;6.37;;;5.87;;
6878;SDS011;3478;51.462;7.338;2023-04-15T17:51:55;6.40;;;5.90;;
6878;SDS011;3478;51.462;7.338;2023-04-15T17:56:57;5.73;;;5.23;;
6878;SDS011;3478;51.462;7.338;2023-04-15T18:01:59;6.53;;;5.00;;
6878;SDS011;3478;51.462;7.338;2023-04-15T18:07:03;5.07;;;4.77;;
6878;SDS011;3478;51.462;7.338;2023-04-15T18:12:05;4.30;;;4.03;;
6878;SDS011;3478;51.462;7.338;2023-04-15T18:17:08;5.00;;;4.67;;
6878;SDS011;3478;51.462;7.338;2023-04-15T18:22:11;5.07;;;4.53;;
6878;SDS011;3478;51.462;7.338;2023-04-15T18:27:13;5.53;;;4.43;;
6878;SDS011;3478;51.462;7.338;2023-04-15T18:32:14;7.53;;;4.50;;
6878;SDS011;3478;51.462;7.338;2023-04-15T18:37:18;5.13;;;4.73;;
6878;SDS011;3478;51.462;7.338;2023-04-15T18:42:19;6.47;;;4.60;;
6878;SDS011;3478;51.462;7.338;2023-04-15T18:47:25;4.87;;;4.47;;
6878;SDS011;3478;51.462;7.338;2023-04-15T18:52:28;6.50;;;5.93;;
6878;SDS011;3478;51.462;7.338;2023-04-15T18:57:31;5.93;;;5.43;;
6878;SDS011;3478;51.462;7.338;2023-04-15T19:02:33;5.97;;;5.50;;
6878;SDS011;3478;51.462;7.338;2023-04-15T19:07:36;4.87;;;4.57;;
6878;SDS011;3478;51.462;7.338;2023-04-15T19:12:38;7.60;;;5.23;;
6878;SDS011;3478;51.462;7.338;2023-04-15T19:17:40;6.60;;;6.00;;
6878;SDS011;3478;51.462;7.338;2023-04-15T19:22:43;5.70;;;5.17;;
6878;SDS011;3478;51.462;7.338;2023-04-15T19:27:46;5.90;;;4.27;;
6878;SDS011;3478;51.462;7.338;2023-04-15T19:32:47;4.67;;;4.27;;
6878;SDS011;3478;51.462;7.338;2023-04-15T19:37:51;5.63;;;3.73;;
6878;SDS011;3478;51.462;7.338;2023-04-15T19:42:53;4.10;;;3.80;;
6878;SDS011;3478;51.462;7.338;2023-04-15T19:47:54;6.37;;;4.90;;
6878;SDS011;3478;51.462;7.338;2023-04-15T19:52:58;4.70;;;4.30;;
6878;SDS011;3478;51.462;7.338;2023-04-15T19:58:00;5.87;;;4.27;;
6878;SDS011;3478;51.462;7.338;2023-04-15T20:03:02;4.77;;;3.70;;
6878;SDS011;3478;51.462;7.338;2023-04-15T20:08:05;4.90;;;4.47;;
6878;SDS011;3478;51.462;7.338;2023-04-15T20:13:07;6.70;;;6.13;;
6878;SDS011;3478;51.462;7.338;2023-04-15T20:18:09;6.50;;;5.90;;
6878;SDS011;3478;51.462;7.338;2023-04-15T20:23:12;4.90;;;4.60;;
6878;SDS011;3478;51.462;7.338;2023-04-15T20:28:14;6.20;;;5.83;;
6878;SDS011;3478;51.462;7.338;2023-04-15T20:33:17;9.20;;;4.90;;
6878;SDS011;3478;51.462;7.338;2023-04-15T20:38:20;6.33;;;5.20;;
6878;SDS011;3478;51.462;7.338;2023-04-15T20:43:22;6.13;;;5.63;;
6878;SDS011;3478;51.462;7.338;2023-04-15T20:48:25;5.33;;;4.83;;
6878;SDS011;3478;51.462;7.338;2023-04-15T20:53:28;6.23;;;5.63;;
6878;SDS011;3478;51.462;7.338;2023-04-15T20:58:30;6.70;;;6.10;;
6878;SDS011;3478;51.462;7.338;2023-04-15T21:03:31;7.07;;;6.40;;
6878;SDS011;3478;51.462;7.338;2023-04-15T21:08:35;9.60;;;7.03;;
6878;SDS011;3478;51.462;7.338;2023-04-15T21:13:37;7.50;;;6.80;;
6878;SDS011;3478;51.462;7.338;2023-04-15T21:18:38;7.13;;;5.93;;
6878;SDS011;3478;51.462;7.338;2023-04-15T21:23:42;13.20;;;7.30;;
6878;SDS011;3478;51.462;7.338;2023-04-15T21:28:44;7.17;;;6.30;;
6878;SDS011;3478;51.462;7.338;2023-04-15T21:33:45;8.50;;;7.60;;
6878;SDS011;3478;51.462;7.338;2023-04-15T21:38:49;9.27;;;7.33;;
6878;SDS011;3478;51.462;7.338;2023-04-15T21:43:50;8.23;;;6.73;;
6878;SDS011;3478;51.462;7.338;2023-04-15T21:48:52;14.17;;;7.97;;
6878;SDS011;3478;51.462;7.338;2023-04-15T21:53:55;13.40;;;7.60;;
6878;SDS011;3478;51.462;7.338;2023-04-15T21:58:57;8.57;;;7.60;;
6878;SDS011;3478;51.462;7.338;2023-04-15T22:03:59;12.47;;;8.60;;
6878;SDS011;3478;51.462;7.338;2023-04-15T22:09:02;11.10;;;8.80;;
6878;SDS011;3478;51.462;7.338;2023-04-15T22:14:04;14.37;;;8.70;;
6878;SDS011;3478;51.462;7.338;2023-04-15T22:19:06;12.37;;;8.33;;
6878;SDS011;3478;51.462;7.338;2023-04-15T22:24:09;13.83;;;8.97;;
6878;SDS011;3478;51.462;7.338;2023-04-15T22:29:11;10.27;;;8.30;;
6878;SDS011;3478;51.462;7.338;2023-04-15T22:34:13;16.97;;;9.27;;
6878;SDS011;3478;51.462;7.338;2023-04-15T22:39:21;14.27;;;10.37;;
6878;SDS011;3478;51.462;7.338;2023-04-15T22:44:23;12.43;;;9.70;;
6878;SDS011;3478;51.462;7.338;2023-04-15T22:49:25;14.17;;;10.40;;
6878;SDS011;3478;51.462;7.338;2023-04-15T22:54:28;12.87;;;9.37;;
6878;SDS011;3478;51.462;7.338;2023-04-15T22:59:33;11.87;;;10.30;;
6878;SDS011;3478;51.462;7.338;2023-04-15T23:04:34;13.80;;;10.57;;
6878;SDS011;3478;51.462;7.338;2023-04-15T23:09:38;20.63;;;12.63;;
6878;SDS011;3478;51.462;7.338;2023-04-15T23:14:40;29.60;;;13.63;;
6878;SDS011;3478;51.462;7.338;2023-04-15T23:19:42;27.50;;;11.97;;
6878;SDS011;3478;51.462;7.338;2023-04-15T23:24:45;23.70;;;12.60;;
6878;SDS011;3478;51.462;7.338;2023-04-15T23:29:49;25.33;;;13.50;;
6878;SDS011;3478;51.462;7.338;2023-04-15T23:34:51;27.63;;;15.77;;
6878;SDS011;3478;51.462;7.338;2023-04-15T23:39:54;30.57;;;14.57;;
6878;SDS011;3478;51.462;7.338;2023-04-15T23:44:56;41.07;;;18.97;;
6878;SDS011;3478;51.462;7.338;2023-04-15T23:49:58;30.77;;;16.97;;
6878;SDS011;3478;51.462;7.338;2023-04-15T23:55:01;26.17;;;16.97;;
